sensor_id;sensor_type;location;lat;lon;timestamp;temperature;humidity
26505;DHT22;19493;48.042;7.584;2024-02-21T00:01:44;6.00;99.90
26505;DHT22;19493;48.042;7.584;2024-02-21T00:04:10;6.10;99.90
26505;DHT22;19493;48.042;7.584;2024-02-21T00:06:35;6.10;99.90
26505;DHT22;19493;48.042;7.584;2024-02-21T00:09:01;6.20;99.90
26505;DHT22;19493;48.042;7.584;2024-02-21T00:11:28;6.20;99.90
26505;DHT22;19493;48.042;7.584;2024-02-21T00:13:54;6.20;99.90
26505;DHT22;19493;48.042;7.584;2024-02-21T00:16:19;6.20;99.90
26505;DHT22;19493;48.042;7.584;2024-02-21T00:18:45;6.20;99.90
26505;DHT22;19493;48.042;7.584;2024-02-21T00:21:11;6.20;99.90
26505;DHT22;19493;48.042;7.584;2024-02-21T00:23:44;6.10;99.90
26505;DHT22;19493;48.042;7.584;2024-02-21T00:26:11;6.20;99.90
26505;DHT22;19493;48.042;7.584;2024-02-21T00:28:37;6.20;99.90
26505;DHT22;19493;48.042;7.584;2024-02-21T00:31:03;6.20;99.90
26505;DHT22;19493;48.042;7.584;2024-02-21T00:33:28;6.20;99.90
26505;DHT22;19493;48.042;7.584;2024-02-21T00:35:54;6.20;99.90
26505;DHT22;19493;48.042;7.584;2024-02-21T00:38:19;6.30;99.90
26505;DHT22;19493;48.042;7.584;2024-02-21T00:40:46;6.30;99.90
26505;DHT22;19493;48.042;7.584;2024-02-21T00:43:11;6.30;99.90
26505;DHT22;19493;48.042;7.584;2024-02-21T00:45:37;6.30;99.90
26505;DHT22;19493;48.042;7.584;2024-02-21T00:48:03;6.30;99.90
26505;DHT22;19493;48.042;7.584;2024-02-21T00:50:29;6.30;99.90
26505;DHT22;19493;48.042;7.584;2024-02-21T00:52:55;6.40;99.90
26505;DHT22;19493;48.042;7.584;2024-02-21T00:55:20;6.40;99.90
26505;DHT22;19493;48.042;7.584;2024-02-21T00:57:46;6.40;99.90
26505;DHT22;19493;48.042;7.584;2024-02-21T01:00:12;6.40;99.90
26505;DHT22;19493;48.042;7.584;2024-02-21T01:02:38;6.40;99.90
26505;DHT22;19493;48.042;7.584;2024-02-21T01:05:04;6.40;99.90
26505;DHT22;19493;48.042;7.584;2024-02-21T01:07:29;6.40;99.90
26505;DHT22;19493;48.042;7.584;2024-02-21T01:09:55;6.40;99.90
26505;DHT22;19493;48.042;7.584;2024-02-21T01:12:21;6.50;99.90
26505;DHT22;19493;48.042;7.584;2024-02-21T01:14:46;6.50;99.90
26505;DHT22;19493;48.042;7.584;2024-02-21T01:17:12;6.50;99.90
26505;DHT22;19493;48.042;7.584;2024-02-21T01:19:38;6.50;99.90
26505;DHT22;19493;48.042;7.584;2024-02-21T01:22:04;6.50;99.90
26505;DHT22;19493;48.042;7.584;2024-02-21T01:24:29;6.50;99.90
26505;DHT22;19493;48.042;7.584;2024-02-21T01:26:55;6.50;99.90
26505;DHT22;19493;48.042;7.584;2024-02-21T01:29:21;6.50;99.90
26505;DHT22;19493;48.042;7.584;2024-02-21T01:31:46;6.50;99.90
26505;DHT22;19493;48.042;7.584;2024-02-21T01:34:13;6.40;99.90
26505;DHT22;19493;48.042;7.584;2024-02-21T01:36:38;6.40;99.90
26505;DHT22;19493;48.042;7.584;2024-02-21T01:39:04;6.30;99.90
26505;DHT22;19493;48.042;7.584;2024-02-21T01:41:30;6.20;99.90
26505;DHT22;19493;48.042;7.584;2024-02-21T01:43:56;6.10;99.90
26505;DHT22;19493;48.042;7.584;2024-02-21T01:46:22;6.00;99.90
26505;DHT22;19493;48.042;7.584;2024-02-21T01:48:48;5.90;99.90
26505;DHT22;19493;48.042;7.584;2024-02-21T01:51:15;5.80;99.90
26505;DHT22;19493;48.042;7.584;2024-02-21T01:53:45;5.80;99.90
26505;DHT22;19493;48.042;7.584;2024-02-21T01:56:12;5.80;99.90
26505;DHT22;19493;48.042;7.584;2024-02-21T01:58:40;5.80;99.90
26505;DHT22;19493;48.042;7.584;2024-02-21T02:01:07;5.80;99.90
26505;DHT22;19493;48.042;7.584;2024-02-21T02:03:33;5.90;99.90
26505;DHT22;19493;48.042;7.584;2024-02-21T02:05:59;5.90;99.90
26505;DHT22;19493;48.042;7.584;2024-02-21T02:08:25;5.90;99.90
26505;DHT22;19493;48.042;7.584;2024-02-21T02:10:52;5.90;99.90
26505;DHT22;19493;48.042;7.584;2024-02-21T02:13:17;5.90;99.90
26505;DHT22;19493;48.042;7.584;2024-02-21T02:15:46;5.80;99.90
26505;DHT22;19493;48.042;7.584;2024-02-21T02:18:13;5.80;99.90
26505;DHT22;19493;48.042;7.584;2024-02-21T02:20:39;5.80;99.90
26505;DHT22;19493;48.042;7.584;2024-02-21T02:23:31;5.70;99.90
26505;DHT22;19493;48.042;7.584;2024-02-21T02:25:58;5.70;99.90
26505;DHT22;19493;48.042;7.584;2024-02-21T02:28:24;5.60;99.90
26505;DHT22;19493;48.042;7.584;2024-02-21T02:30:50;5.60;99.90
26505;DHT22;19493;48.042;7.584;2024-02-21T02:33:16;5.50;99.90
26505;DHT22;19493;48.042;7.584;2024-02-21T02:35:45;5.50;99.90
26505;DHT22;19493;48.042;7.584;2024-02-21T02:38:11;5.50;99.90
26505;DHT22;19493;48.042;7.584;2024-02-21T02:40:38;5.50;99.90
26505;DHT22;19493;48.042;7.584;2024-02-21T02:43:03;5.50;99.90
26505;DHT22;19493;48.042;7.584;2024-02-21T02:45:29;5.50;99.90
26505;DHT22;19493;48.042;7.584;2024-02-21T02:47:55;5.50;99.90
26505;DHT22;19493;48.042;7.584;2024-02-21T02:50:25;5.50;99.90
26505;DHT22;19493;48.042;7.584;2024-02-21T02:52:51;5.40;99.90
26505;DHT22;19493;48.042;7.584;2024-02-21T02:55:17;5.30;99.90
26505;DHT22;19493;48.042;7.584;2024-02-21T02:57:43;5.30;99.90
26505;DHT22;19493;48.042;7.584;2024-02-21T03:00:10;5.20;99.90
26505;DHT22;19493;48.042;7.584;2024-02-21T03:02:38;5.20;99.90
26505;DHT22;19493;48.042;7.584;2024-02-21T03:05:12;5.20;99.90
26505;DHT22;19493;48.042;7.584;2024-02-21T03:07:38;5.10;99.90
26505;DHT22;19493;48.042;7.584;2024-02-21T03:10:04;5.10;99.90
26505;DHT22;19493;48.042;7.584;2024-02-21T03:12:30;5.00;99.90
26505;DHT22;19493;48.042;7.584;2024-02-21T03:14:55;4.90;99.90
26505;DHT22;19493;48.042;7.584;2024-02-21T03:17:21;4.90;99.90
26505;DHT22;19493;48.042;7.584;2024-02-21T03:19:47;4.80;99.90
26505;DHT22;19493;48.042;7.584;2024-02-21T03:22:14;4.70;99.90
26505;DHT22;19493;48.042;7.584;2024-02-21T03:24:39;4.60;99.90
26505;DHT22;19493;48.042;7.584;2024-02-21T03:27:05;4.60;99.90
26505;DHT22;19493;48.042;7.584;2024-02-21T03:29:30;4.60;99.90
26505;DHT22;19493;48.042;7.584;2024-02-21T03:31:56;4.50;99.90
26505;DHT22;19493;48.042;7.584;2024-02-21T03:34:21;4.50;99.90
26505;DHT22;19493;48.042;7.584;2024-02-21T03:36:47;4.50;99.90
26505;DHT22;19493;48.042;7.584;2024-02-21T03:39:13;4.50;99.90
26505;DHT22;19493;48.042;7.584;2024-02-21T03:41:38;4.40;99.90
26505;DHT22;19493;48.042;7.584;2024-02-21T03:44:04;4.40;99.90
26505;DHT22;19493;48.042;7.584;2024-02-21T03:46:30;4.40;99.90
26505;DHT22;19493;48.042;7.584;2024-02-21T03:48:57;4.30;99.90
26505;DHT22;19493;48.042;7.584;2024-02-21T03:51:22;4.20;99.90
26505;DHT22;19493;48.042;7.584;2024-02-21T03:53:48;4.10;99.90
26505;DHT22;19493;48.042;7.584;2024-02-21T03:56:13;4.00;99.90
26505;DHT22;19493;48.042;7.584;2024-02-21T03:58:39;4.00;99.90
26505;DHT22;19493;48.042;7.584;2024-02-21T04:01:04;3.90;99.90
26505;DHT22;19493;48.042;7.584;2024-02-21T04:03:30;3.90;99.90
26505;DHT22;19493;48.042;7.584;2024-02-21T04:05:56;3.90;99.90
26505;DHT22;19493;48.042;7.584;2024-02-21T04:08:23;3.80;99.90
26505;DHT22;19493;48.042;7.584;2024-02-21T04:10:49;3.90;99.90
26505;DHT22;19493;48.042;7.584;2024-02-21T04:13:14;3.90;99.90
26505;DHT22;19493;48.042;7.584;2024-02-21T04:15:40;3.90;99.90
26505;DHT22;19493;48.042;7.584;2024-02-21T04:18:06;3.80;99.90
26505;DHT22;19493;48.042;7.584;2024-02-21T04:20:31;3.80;99.90
26505;DHT22;19493;48.042;7.584;2024-02-21T04:22:58;3.80;99.90
26505;DHT22;19493;48.042;7.584;2024-02-21T04:25:23;3.80;99.90
26505;DHT22;19493;48.042;7.584;2024-02-21T04:27:49;3.80;99.90
26505;DHT22;19493;48.042;7.584;2024-02-21T04:30:15;3.80;99.90
26505;DHT22;19493;48.042;7.584;2024-02-21T04:32:41;3.80;99.90
26505;DHT22;19493;48.042;7.584;2024-02-21T04:35:07;3.70;99.90
26505;DHT22;19493;48.042;7.584;2024-02-21T04:37:33;3.70;99.90
26505;DHT22;19493;48.042;7.584;2024-02-21T04:39:58;3.70;99.90
26505;DHT22;19493;48.042;7.584;2024-02-21T04:42:24;3.60;99.90
26505;DHT22;19493;48.042;7.584;2024-02-21T04:44:50;3.60;99.90
26505;DHT22;19493;48.042;7.584;2024-02-21T04:47:15;3.50;99.90
26505;DHT22;19493;48.042;7.584;2024-02-21T04:49:41;3.50;99.90
26505;DHT22;19493;48.042;7.584;2024-02-21T04:52:07;3.40;99.90
26505;DHT22;19493;48.042;7.584;2024-02-21T04:54:32;3.40;99.90
26505;DHT22;19493;48.042;7.584;2024-02-21T04:57:00;3.30;99.90
26505;DHT22;19493;48.042;7.584;2024-02-21T04:59:26;3.30;99.90
26505;DHT22;19493;48.042;7.584;2024-02-21T05:01:52;3.30;99.90
26505;DHT22;19493;48.042;7.584;2024-02-21T05:04:17;3.20;99.90
26505;DHT22;19493;48.042;7.584;2024-02-21T05:06:43;3.20;99.90
26505;DHT22;19493;48.042;7.584;2024-02-21T05:09:09;3.10;99.90
26505;DHT22;19493;48.042;7.584;2024-02-21T05:11:35;3.00;99.90
26505;DHT22;19493;48.042;7.584;2024-02-21T05:14:01;3.00;99.90
26505;DHT22;19493;48.042;7.584;2024-02-21T05:16:27;3.00;99.90
26505;DHT22;19493;48.042;7.584;2024-02-21T05:18:52;3.00;99.90
26505;DHT22;19493;48.042;7.584;2024-02-21T05:21:18;3.00;99.90
26505;DHT22;19493;48.042;7.584;2024-02-21T05:23:44;3.00;99.90
26505;DHT22;19493;48.042;7.584;2024-02-21T05:26:10;3.00;99.90
26505;DHT22;19493;48.042;7.584;2024-02-21T05:28:35;3.00;99.90
26505;DHT22;19493;48.042;7.584;2024-02-21T05:31:01;2.90;99.90
26505;DHT22;19493;48.042;7.584;2024-02-21T05:33:26;2.90;99.90
26505;DHT22;19493;48.042;7.584;2024-02-21T05:35:52;3.00;99.90
26505;DHT22;19493;48.042;7.584;2024-02-21T05:38:18;3.00;99.90
26505;DHT22;19493;48.042;7.584;2024-02-21T05:40:44;3.10;99.90
26505;DHT22;19493;48.042;7.584;2024-02-21T05:43:11;3.10;99.90
26505;DHT22;19493;48.042;7.584;2024-02-21T05:45:36;3.10;99.90
26505;DHT22;19493;48.042;7.584;2024-02-21T05:48:03;3.10;99.90
26505;DHT22;19493;48.042;7.584;2024-02-21T05:50:29;3.10;99.90
26505;DHT22;19493;48.042;7.584;2024-02-21T05:52:55;3.10;99.90
26505;DHT22;19493;48.042;7.584;2024-02-21T05:55:23;3.10;99.90
26505;DHT22;19493;48.042;7.584;2024-02-21T05:57:49;3.00;99.90
26505;DHT22;19493;48.042;7.584;2024-02-21T06:00:15;3.00;99.90
26505;DHT22;19493;48.042;7.584;2024-02-21T06:02:41;3.00;99.90
26505;DHT22;19493;48.042;7.584;2024-02-21T06:05:07;3.00;99.90
26505;DHT22;19493;48.042;7.584;2024-02-21T06:07:33;3.00;99.90
26505;DHT22;19493;48.042;7.584;2024-02-21T06:10:03;3.00;99.90
26505;DHT22;19493;48.042;7.584;2024-02-21T06:12:28;3.00;99.90
26505;DHT22;19493;48.042;7.584;2024-02-21T06:14:54;3.00;99.90
26505;DHT22;19493;48.042;7.584;2024-02-21T06:17:20;3.00;99.90
26505;DHT22;19493;48.042;7.584;2024-02-21T06:19:45;3.10;99.90
26505;DHT22;19493;48.042;7.584;2024-02-21T06:22:11;3.10;99.90
26505;DHT22;19493;48.042;7.584;2024-02-21T06:24:38;3.10;99.90
26505;DHT22;19493;48.042;7.584;2024-02-21T06:27:04;3.20;99.90
26505;DHT22;19493;48.042;7.584;2024-02-21T06:29:31;3.20;99.90
26505;DHT22;19493;48.042;7.584;2024-02-21T06:31:57;3.20;99.90
26505;DHT22;19493;48.042;7.584;2024-02-21T06:34:22;3.30;99.90
26505;DHT22;19493;48.042;7.584;2024-02-21T06:36:49;3.30;99.90
26505;DHT22;19493;48.042;7.584;2024-02-21T06:39:15;3.40;99.90
26505;DHT22;19493;48.042;7.584;2024-02-21T06:41:41;3.50;99.90
26505;DHT22;19493;48.042;7.584;2024-02-21T06:44:06;3.60;99.90
26505;DHT22;19493;48.042;7.584;2024-02-21T06:46:32;3.60;99.90
26505;DHT22;19493;48.042;7.584;2024-02-21T06:48:59;3.60;99.90
26505;DHT22;19493;48.042;7.584;2024-02-21T06:51:25;3.60;99.90
26505;DHT22;19493;48.042;7.584;2024-02-21T06:53:51;3.60;99.90
26505;DHT22;19493;48.042;7.584;2024-02-21T06:56:17;3.60;99.90
26505;DHT22;19493;48.042;7.584;2024-02-21T06:58:43;3.70;99.90
26505;DHT22;19493;48.042;7.584;2024-02-21T07:01:09;3.70;99.90
26505;DHT22;19493;48.042;7.584;2024-02-21T07:03:34;3.80;99.90
26505;DHT22;19493;48.042;7.584;2024-02-21T07:06:00;3.90;99.90
26505;DHT22;19493;48.042;7.584;2024-02-21T07:08:25;4.00;99.90
26505;DHT22;19493;48.042;7.584;2024-02-21T07:10:51;4.10;99.90
26505;DHT22;19493;48.042;7.584;2024-02-21T07:13:17;4.10;99.90
26505;DHT22;19493;48.042;7.584;2024-02-21T07:15:43;4.20;99.90
26505;DHT22;19493;48.042;7.584;2024-02-21T07:18:09;4.30;99.90
26505;DHT22;19493;48.042;7.584;2024-02-21T07:20:34;4.40;99.90
26505;DHT22;19493;48.042;7.584;2024-02-21T07:23:03;4.50;99.90
26505;DHT22;19493;48.042;7.584;2024-02-21T07:25:28;4.60;99.90
26505;DHT22;19493;48.042;7.584;2024-02-21T07:27:54;4.70;99.90
26505;DHT22;19493;48.042;7.584;2024-02-21T07:30:19;4.80;99.90
26505;DHT22;19493;48.042;7.584;2024-02-21T07:32:45;4.90;99.90
26505;DHT22;19493;48.042;7.584;2024-02-21T07:35:11;5.00;99.90
26505;DHT22;19493;48.042;7.584;2024-02-21T07:37:37;5.10;99.90
26505;DHT22;19493;48.042;7.584;2024-02-21T07:40:06;5.20;99.90
26505;DHT22;19493;48.042;7.584;2024-02-21T07:42:37;5.30;99.90
26505;DHT22;19493;48.042;7.584;2024-02-21T07:45:03;5.40;99.90
26505;DHT22;19493;48.042;7.584;2024-02-21T07:47:29;5.50;99.90
26505;DHT22;19493;48.042;7.584;2024-02-21T07:49:54;5.60;99.90
26505;DHT22;19493;48.042;7.584;2024-02-21T07:52:20;5.70;99.90
26505;DHT22;19493;48.042;7.584;2024-02-21T07:54:45;5.80;99.90
26505;DHT22;19493;48.042;7.584;2024-02-21T07:57:11;5.80;99.90
26505;DHT22;19493;48.042;7.584;2024-02-21T07:59:37;6.00;99.90
26505;DHT22;19493;48.042;7.584;2024-02-21T08:02:02;6.00;99.90
26505;DHT22;19493;48.042;7.584;2024-02-21T08:04:32;6.10;99.90
26505;DHT22;19493;48.042;7.584;2024-02-21T08:06:57;6.20;99.90
26505;DHT22;19493;48.042;7.584;2024-02-21T08:09:26;6.30;99.90
26505;DHT22;19493;48.042;7.584;2024-02-21T08:11:52;6.40;99.90
26505;DHT22;19493;48.042;7.584;2024-02-21T08:14:18;6.60;99.90
26505;DHT22;19493;48.042;7.584;2024-02-21T08:16:43;6.80;99.90
26505;DHT22;19493;48.042;7.584;2024-02-21T08:19:10;7.00;99.90
26505;DHT22;19493;48.042;7.584;2024-02-21T08:21:36;7.00;99.90
26505;DHT22;19493;48.042;7.584;2024-02-21T08:24:01;7.20;99.90
26505;DHT22;19493;48.042;7.584;2024-02-21T08:26:27;7.30;99.90
26505;DHT22;19493;48.042;7.584;2024-02-21T08:28:56;7.50;99.90
26505;DHT22;19493;48.042;7.584;2024-02-21T08:31:25;7.60;99.90
26505;DHT22;19493;48.042;7.584;2024-02-21T08:33:57;7.70;99.90
26505;DHT22;19493;48.042;7.584;2024-02-21T08:36:27;7.90;99.90
26505;DHT22;19493;48.042;7.584;2024-02-21T08:38:53;8.00;99.90
26505;DHT22;19493;48.042;7.584;2024-02-21T08:41:19;8.10;99.90
26505;DHT22;19493;48.042;7.584;2024-02-21T08:43:44;8.10;99.90
26505;DHT22;19493;48.042;7.584;2024-02-21T08:46:10;8.20;99.90
26505;DHT22;19493;48.042;7.584;2024-02-21T08:48:35;8.20;99.90
26505;DHT22;19493;48.042;7.584;2024-02-21T08:51:01;8.40;99.90
26505;DHT22;19493;48.042;7.584;2024-02-21T08:53:26;8.50;99.90
26505;DHT22;19493;48.042;7.584;2024-02-21T08:55:52;8.70;99.90
26505;DHT22;19493;48.042;7.584;2024-02-21T08:58:17;8.90;99.90
26505;DHT22;19493;48.042;7.584;2024-02-21T09:00:43;9.20;99.90
26505;DHT22;19493;48.042;7.584;2024-02-21T09:03:08;9.20;99.90
26505;DHT22;19493;48.042;7.584;2024-02-21T09:05:34;9.20;99.90
26505;DHT22;19493;48.042;7.584;2024-02-21T09:08:00;9.40;99.90
26505;DHT22;19493;48.042;7.584;2024-02-21T09:10:26;9.60;99.90
26505;DHT22;19493;48.042;7.584;2024-02-21T09:12:51;9.60;99.90
26505;DHT22;19493;48.042;7.584;2024-02-21T09:15:17;9.60;99.90
26505;DHT22;19493;48.042;7.584;2024-02-21T09:17:42;9.80;99.90
26505;DHT22;19493;48.042;7.584;2024-02-21T09:20:08;10.10;99.90
26505;DHT22;19493;48.042;7.584;2024-02-21T09:22:37;10.40;99.90
26505;DHT22;19493;48.042;7.584;2024-02-21T09:25:05;10.60;99.90
26505;DHT22;19493;48.042;7.584;2024-02-21T09:27:31;10.90;99.90
26505;DHT22;19493;48.042;7.584;2024-02-21T09:29:57;11.10;99.90
26505;DHT22;19493;48.042;7.584;2024-02-21T09:32:22;11.10;99.90
26505;DHT22;19493;48.042;7.584;2024-02-21T09:34:48;11.40;99.90
26505;DHT22;19493;48.042;7.584;2024-02-21T09:37:13;11.70;99.90
26505;DHT22;19493;48.042;7.584;2024-02-21T09:39:39;11.90;99.90
26505;DHT22;19493;48.042;7.584;2024-02-21T09:42:06;12.30;99.90
26505;DHT22;19493;48.042;7.584;2024-02-21T09:44:36;12.50;99.90
26505;DHT22;19493;48.042;7.584;2024-02-21T09:47:06;12.50;99.90
26505;DHT22;19493;48.042;7.584;2024-02-21T09:49:33;12.60;99.90
26505;DHT22;19493;48.042;7.584;2024-02-21T09:52:01;12.60;99.90
26505;DHT22;19493;48.042;7.584;2024-02-21T09:54:28;12.50;99.90
26505;DHT22;19493;48.042;7.584;2024-02-21T09:56:55;12.40;99.90
26505;DHT22;19493;48.042;7.584;2024-02-21T09:59:21;12.50;99.90
26505;DHT22;19493;48.042;7.584;2024-02-21T10:01:46;12.50;99.90
26505;DHT22;19493;48.042;7.584;2024-02-21T10:04:12;12.40;99.90
26505;DHT22;19493;48.042;7.584;2024-02-21T10:06:38;12.40;99.90
26505;DHT22;19493;48.042;7.584;2024-02-21T10:09:06;12.60;99.90
26505;DHT22;19493;48.042;7.584;2024-02-21T10:11:31;12.80;99.90
26505;DHT22;19493;48.042;7.584;2024-02-21T10:14:07;13.00;99.90
26505;DHT22;19493;48.042;7.584;2024-02-21T10:16:33;13.10;99.90
26505;DHT22;19493;48.042;7.584;2024-02-21T10:18:59;13.20;99.90
26505;DHT22;19493;48.042;7.584;2024-02-21T10:21:25;13.60;99.90
26505;DHT22;19493;48.042;7.584;2024-02-21T10:23:51;13.60;99.90
26505;DHT22;19493;48.042;7.584;2024-02-21T10:26:18;13.80;99.90
26505;DHT22;19493;48.042;7.584;2024-02-21T10:28:44;14.10;99.90
26505;DHT22;19493;48.042;7.584;2024-02-21T10:31:24;14.40;99.90
26505;DHT22;19493;48.042;7.584;2024-02-21T10:33:59;14.40;99.90
26505;DHT22;19493;48.042;7.584;2024-02-21T10:36:26;14.60;99.90
26505;DHT22;19493;48.042;7.584;2024-02-21T10:38:52;15.10;99.90
26505;DHT22;19493;48.042;7.584;2024-02-21T10:41:20;15.60;97.70
26505;DHT22;19493;48.042;7.584;2024-02-21T10:43:53;15.50;93.30
26505;DHT22;19493;48.042;7.584;2024-02-21T10:46:21;15.50;93.10
26505;DHT22;19493;48.042;7.584;2024-02-21T10:48:48;15.40;93.20
26505;DHT22;19493;48.042;7.584;2024-02-21T10:51:20;15.00;92.80
26505;DHT22;19493;48.042;7.584;2024-02-21T10:56:32;14.40;94.20
26505;DHT22;19493;48.042;7.584;2024-02-21T10:59:04;14.40;93.20
26505;DHT22;19493;48.042;7.584;2024-02-21T11:01:30;14.60;93.30
26505;DHT22;19493;48.042;7.584;2024-02-21T11:04:08;15.10;91.80
26505;DHT22;19493;48.042;7.584;2024-02-21T11:06:39;15.00;90.50
26505;DHT22;19493;48.042;7.584;2024-02-21T11:09:06;14.80;91.10
26505;DHT22;19493;48.042;7.584;2024-02-21T11:11:34;14.90;90.90
26505;DHT22;19493;48.042;7.584;2024-02-21T11:14:21;14.60;90.60
26505;DHT22;19493;48.042;7.584;2024-02-21T11:16:47;14.50;91.10
26505;DHT22;19493;48.042;7.584;2024-02-21T11:19:24;13.90;91.00
26505;DHT22;19493;48.042;7.584;2024-02-21T11:21:51;14.00;91.90
26505;DHT22;19493;48.042;7.584;2024-02-21T11:24:27;14.00;92.60
26505;DHT22;19493;48.042;7.584;2024-02-21T11:27:14;14.00;92.40
26505;DHT22;19493;48.042;7.584;2024-02-21T11:29:47;14.10;92.70
26505;DHT22;19493;48.042;7.584;2024-02-21T11:32:19;14.10;92.90
26505;DHT22;19493;48.042;7.584;2024-02-21T11:34:59;14.00;92.90
26505;DHT22;19493;48.042;7.584;2024-02-21T11:37:30;13.70;93.50
26505;DHT22;19493;48.042;7.584;2024-02-21T11:39:57;14.00;93.60
26505;DHT22;19493;48.042;7.584;2024-02-21T11:42:25;14.20;91.90
26505;DHT22;19493;48.042;7.584;2024-02-21T11:44:51;14.60;90.80
26505;DHT22;19493;48.042;7.584;2024-02-21T11:47:18;14.90;89.40
26505;DHT22;19493;48.042;7.584;2024-02-21T11:49:46;15.00;88.40
26505;DHT22;19493;48.042;7.584;2024-02-21T11:52:12;14.70;86.10
26505;DHT22;19493;48.042;7.584;2024-02-21T11:54:40;14.70;85.80
26505;DHT22;19493;48.042;7.584;2024-02-21T11:57:06;14.70;84.90
26505;DHT22;19493;48.042;7.584;2024-02-21T11:59:32;14.70;84.60
26505;DHT22;19493;48.042;7.584;2024-02-21T12:01:59;14.90;84.40
26505;DHT22;19493;48.042;7.584;2024-02-21T12:04:25;14.80;83.60
26505;DHT22;19493;48.042;7.584;2024-02-21T12:06:52;14.80;84.10
26505;DHT22;19493;48.042;7.584;2024-02-21T12:09:19;14.90;84.20
26505;DHT22;19493;48.042;7.584;2024-02-21T12:11:45;14.90;83.80
26505;DHT22;19493;48.042;7.584;2024-02-21T12:14:16;14.50;84.60
26505;DHT22;19493;48.042;7.584;2024-02-21T12:16:42;14.40;85.00
26505;DHT22;19493;48.042;7.584;2024-02-21T12:19:13;14.30;86.10
26505;DHT22;19493;48.042;7.584;2024-02-21T12:21:39;14.20;87.10
26505;DHT22;19493;48.042;7.584;2024-02-21T12:26:38;14.40;85.90
26505;DHT22;19493;48.042;7.584;2024-02-21T12:29:03;14.40;85.40
26505;DHT22;19493;48.042;7.584;2024-02-21T12:31:29;14.60;84.80
26505;DHT22;19493;48.042;7.584;2024-02-21T12:33:54;14.40;84.50
26505;DHT22;19493;48.042;7.584;2024-02-21T12:36:20;14.20;84.80
26505;DHT22;19493;48.042;7.584;2024-02-21T12:38:46;14.20;85.70
26505;DHT22;19493;48.042;7.584;2024-02-21T12:41:14;14.10;84.90
26505;DHT22;19493;48.042;7.584;2024-02-21T12:43:40;14.10;84.80
26505;DHT22;19493;48.042;7.584;2024-02-21T12:46:05;14.00;85.60
26505;DHT22;19493;48.042;7.584;2024-02-21T12:48:33;14.00;86.80
26505;DHT22;19493;48.042;7.584;2024-02-21T12:50:59;14.00;86.20
26505;DHT22;19493;48.042;7.584;2024-02-21T12:53:24;14.10;84.80
26505;DHT22;19493;48.042;7.584;2024-02-21T12:55:50;14.10;84.40
26505;DHT22;19493;48.042;7.584;2024-02-21T12:58:16;13.90;85.40
26505;DHT22;19493;48.042;7.584;2024-02-21T13:00:42;14.00;85.50
26505;DHT22;19493;48.042;7.584;2024-02-21T13:03:08;14.00;85.50
26505;DHT22;19493;48.042;7.584;2024-02-21T13:05:35;14.20;84.40
26505;DHT22;19493;48.042;7.584;2024-02-21T13:08:01;14.00;84.40
26505;DHT22;19493;48.042;7.584;2024-02-21T13:10:27;14.20;84.70
26505;DHT22;19493;48.042;7.584;2024-02-21T13:12:52;14.20;84.80
26505;DHT22;19493;48.042;7.584;2024-02-21T13:15:18;14.10;84.60
26505;DHT22;19493;48.042;7.584;2024-02-21T13:17:44;14.00;84.10
26505;DHT22;19493;48.042;7.584;2024-02-21T13:21:56;13.80;83.90
26505;DHT22;19493;48.042;7.584;2024-02-21T13:24:22;13.90;84.10
26505;DHT22;19493;48.042;7.584;2024-02-21T13:26:48;13.80;83.50
26505;DHT22;19493;48.042;7.584;2024-02-21T13:29:13;13.80;84.80
26505;DHT22;19493;48.042;7.584;2024-02-21T13:31:39;13.80;84.80
26505;DHT22;19493;48.042;7.584;2024-02-21T13:34:04;14.00;85.00
26505;DHT22;19493;48.042;7.584;2024-02-21T13:36:30;14.00;85.50
26505;DHT22;19493;48.042;7.584;2024-02-21T13:38:55;14.20;84.80
26505;DHT22;19493;48.042;7.584;2024-02-21T13:41:21;14.10;86.30
26505;DHT22;19493;48.042;7.584;2024-02-21T13:43:48;14.20;86.40
26505;DHT22;19493;48.042;7.584;2024-02-21T13:46:14;14.30;85.60
26505;DHT22;19493;48.042;7.584;2024-02-21T13:48:39;14.40;85.80
26505;DHT22;19493;48.042;7.584;2024-02-21T13:51:05;14.40;85.90
26505;DHT22;19493;48.042;7.584;2024-02-21T13:53:31;14.40;85.70
26505;DHT22;19493;48.042;7.584;2024-02-21T13:55:56;14.30;84.70
26505;DHT22;19493;48.042;7.584;2024-02-21T13:58:22;14.10;86.20
26505;DHT22;19493;48.042;7.584;2024-02-21T14:00:48;14.00;85.50
26505;DHT22;19493;48.042;7.584;2024-02-21T14:03:14;13.90;86.20
26505;DHT22;19493;48.042;7.584;2024-02-21T14:05:39;13.80;86.10
26505;DHT22;19493;48.042;7.584;2024-02-21T14:08:06;13.80;86.40
26505;DHT22;19493;48.042;7.584;2024-02-21T14:10:32;13.80;86.10
26505;DHT22;19493;48.042;7.584;2024-02-21T14:12:57;13.80;85.50
26505;DHT22;19493;48.042;7.584;2024-02-21T14:15:23;13.60;85.10
26505;DHT22;19493;48.042;7.584;2024-02-21T14:17:50;13.50;86.00
26505;DHT22;19493;48.042;7.584;2024-02-21T14:20:16;13.50;85.20
26505;DHT22;19493;48.042;7.584;2024-02-21T14:22:41;13.30;83.50
26505;DHT22;19493;48.042;7.584;2024-02-21T14:25:07;13.30;84.80
26505;DHT22;19493;48.042;7.584;2024-02-21T14:27:33;13.20;84.10
26505;DHT22;19493;48.042;7.584;2024-02-21T14:30:01;13.10;84.50
26505;DHT22;19493;48.042;7.584;2024-02-21T14:32:27;13.00;85.50
26505;DHT22;19493;48.042;7.584;2024-02-21T14:34:53;13.00;85.10
26505;DHT22;19493;48.042;7.584;2024-02-21T14:37:19;12.90;85.20
26505;DHT22;19493;48.042;7.584;2024-02-21T14:39:44;12.90;83.80
26505;DHT22;19493;48.042;7.584;2024-02-21T14:42:10;12.70;83.90
26505;DHT22;19493;48.042;7.584;2024-02-21T14:44:36;12.70;85.00
26505;DHT22;19493;48.042;7.584;2024-02-21T14:47:02;12.80;85.40
26505;DHT22;19493;48.042;7.584;2024-02-21T14:49:30;12.80;86.70
26505;DHT22;19493;48.042;7.584;2024-02-21T14:51:55;12.80;87.80
26505;DHT22;19493;48.042;7.584;2024-02-21T14:54:21;12.90;87.90
26505;DHT22;19493;48.042;7.584;2024-02-21T14:56:48;12.90;88.40
26505;DHT22;19493;48.042;7.584;2024-02-21T14:59:14;12.90;87.50
26505;DHT22;19493;48.042;7.584;2024-02-21T15:01:39;12.80;88.20
26505;DHT22;19493;48.042;7.584;2024-02-21T15:04:06;12.70;87.70
26505;DHT22;19493;48.042;7.584;2024-02-21T15:06:33;12.60;87.00
26505;DHT22;19493;48.042;7.584;2024-02-21T15:09:01;12.60;88.00
26505;DHT22;19493;48.042;7.584;2024-02-21T15:11:28;12.60;87.40
26505;DHT22;19493;48.042;7.584;2024-02-21T15:13:53;12.50;88.10
26505;DHT22;19493;48.042;7.584;2024-02-21T15:16:19;12.40;89.10
26505;DHT22;19493;48.042;7.584;2024-02-21T15:18:45;12.40;89.10
26505;DHT22;19493;48.042;7.584;2024-02-21T15:21:10;12.30;90.00
26505;DHT22;19493;48.042;7.584;2024-02-21T15:23:39;12.30;90.10
26505;DHT22;19493;48.042;7.584;2024-02-21T15:26:06;12.30;90.00
26505;DHT22;19493;48.042;7.584;2024-02-21T15:28:31;12.20;90.30
26505;DHT22;19493;48.042;7.584;2024-02-21T15:30:57;12.20;90.50
26505;DHT22;19493;48.042;7.584;2024-02-21T15:33:23;12.20;90.50
26505;DHT22;19493;48.042;7.584;2024-02-21T15:35:49;12.10;90.20
26505;DHT22;19493;48.042;7.584;2024-02-21T15:38:15;12.20;90.00
26505;DHT22;19493;48.042;7.584;2024-02-21T15:40:41;12.10;90.20
26505;DHT22;19493;48.042;7.584;2024-02-21T15:43:07;12.10;90.40